Samsun, Turkey

1:23 AM EEST on August 26, 2016 (GMT +0300)
Carsamba | | Change Station

Elev 16 ft 41.25 °N, 36.57 °E | Updated 33 minutes ago

Mostly Cloudy
Mostly Cloudy
77 °F
Feels Like 77 °F
N
16
Wind Variable Wind from West

Today
High -- | Low -- °F
--% Chance of Precip.
Yesterday
High -- | Low -- °F
Precip. -- in
Pressure 29.92 in
Visibility 6.2 miles
Clouds Mostly Cloudy 2700 ft
Mostly Cloudy 8000 ft
Dew Point 68 °F
Humidity 74%
Rainfall 0.00 in
Snow Depth Not available.
5:54 AM 7:15 PM
Last Quarter, 41% visible
METAR LTFH 252150Z 27014KT 9999 BKN027 BKN080 25/20 Q1013 NOSIG
Pressure 29.92 in
Visibility 6.2 miles
Clouds Mostly Cloudy 2700 ft
Mostly Cloudy 8000 ft
Dew Point 68 °F
Humidity 74%
Rainfall 0.00 in
Snow Depth Not available.
5:54 AM 7:15 PM
Last Quarter, 41% visible
METAR LTFH 252150Z 27014KT 9999 BKN027 BKN080 25/20 Q1013 NOSIG

10-Day Weather Forecast

×

Almanac

Astronomy

Aug. 26, 2016 Rise Set
Actual Time
Civil Twilight
Nautical Twilight
Astronomical Twilight
Moon
Length of Visible Light
Length of Day
Tomorrow will be .
, % of the Moon is Illuminated

Today's Extremes

Country Highs Country Lows

Community

WunderPhotos

Upload Photos

1,934,952 photos uploaded!

WunderBlog® & News

Nearby

Air Quality

  Air Quality AQ Index Pollutant
Not available.

Snow Depth

Station Depth Elevation

Earthquake Activity

City Distance Mag. Time & Date
Minimum magnitude displayed is 2.5.

Coastal Water Temperatures

Place Temperature

Stations

Nearby Weather Stations

Station Location Temp. Windchill Dew Point Humidity Wind Precip. Elev Updated Type